Observation data for Memphis on 06/03/2020      Previous  Date  Next       Current Mesonet Observations  Soil Data  Daily Summary Page  Observations in Plain Language
KMES 030500Z 15007KT 25/17 A3003 RMK A01 T02510168  RH  063%=      5-min Rain = 0
KMES 030505Z 15006KT 25/17 A3003 RMK A01 T02500168  RH  064%=      5-min Rain = 0
KMES 030510Z 15007KT 25/17 A3003 RMK A01 T02490169  RH  064%=      5-min Rain = 0
KMES 030515Z 16006KT 25/17 A3003 RMK A01 T02480169  RH  065%=      5-min Rain = 0
KMES 030520Z 15006KT 25/17 A3003 RMK A01 T02470169  RH  065%=      5-min Rain = 0
KMES 030525Z 15005KT 25/17 A3003 RMK A01 T02460169  RH  065%=      5-min Rain = 0
KMES 030530Z 16005KT 25/17 A3003 RMK A01 T02450169  RH  066%=      5-min Rain = 0
KMES 030535Z 16004KT 24/17 A3003 RMK A01 T02440169  RH  066%=      5-min Rain = 0
KMES 030540Z 16004KT 24/17 A3003 RMK A01 T02420169  RH  067%=      5-min Rain = 0
KMES 030545Z 16004KT 24/17 A3003 RMK A01 T02420169  RH  067%=      5-min Rain = 0
KMES 030550Z 16004KT 24/17 A3003 RMK A01 T02410169  RH  068%=      5-min Rain = 0
KMES 030555Z 16004KT 24/17 A3003 RMK A01 T02400169  RH  068%=      5-min Rain = 0
KMES 030600Z 16004KT 24/17 A3002 RMK A01 T02390169  RH  068%=      5-min Rain = 0
KMES 030605Z 17004KT 24/17 A3002 RMK A01 T02380169  RH  069%=      5-min Rain = 0
KMES 030610Z 16004KT 24/17 A3002 RMK A01 T02370170  RH  069%=      5-min Rain = 0
KMES 030615Z 16005KT 24/17 A3002 RMK A01 T02360170  RH  070%=      5-min Rain = 0
KMES 030620Z 16004KT 24/17 A3002 RMK A01 T02360170  RH  070%=      5-min Rain = 0
KMES 030625Z 17004KT 24/17 A3002 RMK A01 T02350170  RH  070%=      5-min Rain = 0
KMES 030630Z 17004KT 23/17 A3002 RMK A01 T02340170  RH  071%=      5-min Rain = 0
KMES 030635Z 18003KT 23/17 A3002 RMK A01 T02340170  RH  071%=      5-min Rain = 0
KMES 030640Z 19003KT 23/17 A3001 RMK A01 T02340170  RH  071%=      5-min Rain = 0
KMES 030645Z 19003KT 23/17 A3001 RMK A01 T02320169  RH  071%=      5-min Rain = 0
KMES 030650Z 19002KT 23/17 A3002 RMK A01 T02310170  RH  072%=      5-min Rain = 0
KMES 030655Z 19002KT 23/17 A3002 RMK A01 T02310170  RH  072%=      5-min Rain = 0
KMES 030700Z 19002KT 23/17 A3001 RMK A01 T02300170  RH  072%=      5-min Rain = 0
KMES 030705Z 18003KT 23/17 A3001 RMK A01 T02300170  RH  073%=      5-min Rain = 0
KMES 030710Z 18002KT 23/17 A3001 RMK A01 T02290169  RH  073%=      5-min Rain = 0
KMES 030715Z 20003KT 23/17 A3001 RMK A01 T02280170  RH  073%=      5-min Rain = 0
KMES 030720Z 19003KT 23/17 A30 RMK A01 T02270169  RH  073%=      5-min Rain = 0
KMES 030725Z 18003KT 23/17 A3001 RMK A01 T02260169  RH  074%=      5-min Rain = 0
KMES 030730Z 18003KT 23/17 A3001 RMK A01 T02250169  RH  074%=      5-min Rain = 0
KMES 030735Z 18003KT 23/17 A30 RMK A01 T02250170  RH  074%=      5-min Rain = 0
KMES 030740Z 18003KT 23/17 A30 RMK A01 T02250170  RH  075%=      5-min Rain = 0
KMES 030745Z 18003KT 23/17 A30 RMK A01 T02260170  RH  074%=      5-min Rain = 0
KMES 030750Z 17003KT 23/17 A30 RMK A01 T02250170  RH  074%=      5-min Rain = 0
KMES 030755Z 17003KT 23/17 A30 RMK A01 T02250169  RH  075%=      5-min Rain = 0
KMES 030800Z 18003KT 22/17 A30 RMK A01 T02230169  RH  075%=      5-min Rain = 0
KMES 030805Z 20003KT 22/17 A30 RMK A01 T02230169  RH  075%=      5-min Rain = 0
KMES 030810Z 20003KT 22/17 A30 RMK A01 T02220169  RH  075%=      5-min Rain = 0
KMES 030815Z 18003KT 22/17 A30 RMK A01 T02210169  RH  076%=      5-min Rain = 0
KMES 030820Z 19003KT 22/17 A30 RMK A01 T02210169  RH  076%=      5-min Rain = 0
KMES 030825Z 19003KT 22/17 A30 RMK A01 T02220169  RH  076%=      5-min Rain = 0
KMES 030830Z 19003KT 22/17 A30 RMK A01 T02210169  RH  076%=      5-min Rain = 0
KMES 030835Z 18003KT 22/17 A30 RMK A01 T02200169  RH  076%=      5-min Rain = 0
KMES 030840Z 19002KT 22/17 A30 RMK A01 T02200169  RH  076%=      5-min Rain = 0
KMES 030845Z 20002KT 22/17 A30 RMK A01 T02190168  RH  077%=      5-min Rain = 0
KMES 030850Z 19001KT 22/17 A2999 RMK A01 T02170167  RH  077%=      5-min Rain = 0
KMES 030855Z 19002KT 22/17 A2999 RMK A01 T02150166  RH  077%=      5-min Rain = 0
KMES 030900Z 20002KT 21/17 A2999 RMK A01 T02140167  RH  078%=      5-min Rain = 0
KMES 030905Z 19002KT 21/17 A2999 RMK A01 T02120166  RH  079%=      5-min Rain = 0
KMES 030910Z 21001KT 21/17 A2999 RMK A01 T02100165  RH  079%=      5-min Rain = 0
KMES 030915Z 00000KT 21/16 A2999 RMK A01 T02070163  RH  080%=      5-min Rain = 0
KMES 030920Z 22000KT 20/16 A2999 RMK A01 T02030161  RH  080%=      5-min Rain = 0
KMES 030925Z 24000KT 20/16 A2999 RMK A01 T02010161  RH  082%=      5-min Rain = 0
KMES 030930Z 00000KT 20/16 A2999 RMK A01 T01990160  RH  082%=      5-min Rain = 0
KMES 030935Z 24000KT 20/16 A2999 RMK A01 T01970160  RH  083%=      5-min Rain = 0
KMES 030940Z 00000KT 20/16 A2999 RMK A01 T01960161  RH  084%=      5-min Rain = 0
KMES 030945Z 00000KT 20/16 A2999 RMK A01 T01950160  RH  084%=      5-min Rain = 0
KMES 030950Z 17001KT 19/16 A2999 RMK A01 T01940160  RH  085%=      5-min Rain = 0
KMES 030955Z 17001KT 19/16 A2999 RMK A01 T01930160  RH  085%=      5-min Rain = 0
KMES 031000Z 17002KT 19/16 A2999 RMK A01 T01910160  RH  086%=      5-min Rain = 0
KMES 031005Z 18003KT 19/16 A2999 RMK A01 T01900160  RH  087%=      5-min Rain = 0
KMES 031010Z 20003KT 19/16 A2999 RMK A01 T01920163  RH  087%=      5-min Rain = 0
KMES 031015Z 19004KT 20/17 A2999 RMK A01 T01950166  RH  087%=      5-min Rain = 0
KMES 031020Z 19003KT 20/17 A2999 RMK A01 T01990169  RH  087%=      5-min Rain = 0
KMES 031025Z 19003KT 20/17 A2999 RMK A01 T02020170  RH  086%=      5-min Rain = 0
KMES 031030Z 17003KT 20/17 A2999 RMK A01 T02030168  RH  084%=      5-min Rain = 0
KMES 031035Z 17003KT 20/16 A2999 RMK A01 T02010164  RH  084%=      5-min Rain = 0
KMES 031040Z 17003KT 20/16 A2999 RMK A01 T01990163  RH  084%=      5-min Rain = 0
KMES 031045Z 16002KT 20/16 A2999 RMK A01 T01980163  RH  084%=      5-min Rain = 0
KMES 031050Z 16002KT 20/16 A2999 RMK A01 T01960162  RH  085%=      5-min Rain = 0
KMES 031055Z 16003KT 20/16 A2999 RMK A01 T01960163  RH  085%=      5-min Rain = 0
KMES 031100Z 17003KT 20/16 A2999 RMK A01 T01970164  RH  085%=      5-min Rain = 0
KMES 031105Z 17003KT 20/16 A2999 RMK A01 T01970164  RH  085%=      5-min Rain = 0
KMES 031110Z 17002KT 20/16 A2999 RMK A01 T01970164  RH  085%=      5-min Rain = 0
KMES 031115Z 17001KT 20/16 A2999 RMK A01 T01960162  RH  085%=      5-min Rain = 0
KMES 031120Z 16002KT 19/16 A2999 RMK A01 T01930161  RH  085%=      5-min Rain = 0
KMES 031125Z 16003KT 19/16 A2999 RMK A01 T01920161  RH  086%=      5-min Rain = 0
KMES 031130Z 16002KT 19/16 A2999 RMK A01 T01930162  RH  086%=      5-min Rain = 0
KMES 031135Z 15001KT 19/16 A2999 RMK A01 T01920160  RH  086%=      5-min Rain = 0
KMES 031140Z 16001KT 19/16 A2999 RMK A01 T01890159  RH  086%=      5-min Rain = 0
KMES 031145Z 16001KT 19/16 A2999 RMK A01 T01870157  RH  087%=      5-min Rain = 0
KMES 031150Z 16000KT 19/16 A2999 RMK A01 T01860157  RH  087%=      5-min Rain = 0
KMES 031155Z 15001KT 19/16 A2999 RMK A01 T01870159  RH  087%=      5-min Rain = 0
KMES 031200Z 16002KT 19/16 A2999 RMK A01 T01900162  RH  088%=      5-min Rain = 0
KMES 031205Z 16002KT 19/16 A2999 RMK A01 T01930163  RH  087%=      5-min Rain = 0
KMES 031210Z 15002KT 20/17 A2999 RMK A01 T01950165  RH  087%=      5-min Rain = 0
KMES 031215Z 15002KT 20/17 A2999 RMK A01 T01970166  RH  086%=      5-min Rain = 0
KMES 031220Z 15002KT 20/17 A2999 RMK A01 T01990167  RH  086%=      5-min Rain = 0
KMES 031225Z 15002KT 20/17 A2999 RMK A01 T02010168  RH  085%=      5-min Rain = 0
KMES 031230Z 19001KT 20/17 A2999 RMK A01 T02040169  RH  085%=      5-min Rain = 0
KMES 031235Z 22001KT 21/17 A2999 RMK A01 T02060169  RH  084%=      5-min Rain = 0
KMES 031240Z 23001KT 21/17 A2999 RMK A01 T02070169  RH  083%=      5-min Rain = 0
KMES 031245Z 22001KT 21/17 A2999 RMK A01 T02110171  RH  082%=      5-min Rain = 0
KMES 031250Z 19001KT 21/17 A2999 RMK A01 T02140171  RH  080%=      5-min Rain = 0
KMES 031255Z 21000KT 22/17 A2999 RMK A01 T02180173  RH  080%=      5-min Rain = 0
KMES 031300Z 14001KT 22/18 A2999 RMK A01 T02240175  RH  078%=      5-min Rain = 0
KMES 031305Z 10001KT 23/18 A2999 RMK A01 T02280175  RH  076%=      5-min Rain = 0
KMES 031310Z 11001KT 23/18 A30 RMK A01 T02320175  RH  074%=      5-min Rain = 0
KMES 031315Z 15002KT 24/17 A30 RMK A01 T02350174  RH  072%=      5-min Rain = 0
KMES 031320Z 17001KT 24/18 A30 RMK A01 T02370175  RH  072%=      5-min Rain = 0
KMES 031325Z 19001KT 24/18 A30 RMK A01 T02390178  RH  072%=      5-min Rain = 0
KMES 031330Z 21004KT 25/18 A30 RMK A01 T02450175  RH  069%=      5-min Rain = 0
KMES 031335Z 20006KT 25/17 A2999 RMK A01 T02480170  RH  065%=      5-min Rain = 0
KMES 031340Z 21006KT 25/17 A30 RMK A01 T02490169  RH  064%=      5-min Rain = 0
KMES 031345Z 21007KT 25/17 A30 RMK A01 T02500169  RH  064%=      5-min Rain = 0
KMES 031350Z 21005KT 25/17 A30 RMK A01 T02520169  RH  063%=      5-min Rain = 0
KMES 031355Z 23006KT 25/17 A30 RMK A01 T02530168  RH  063%=      5-min Rain = 0
KMES 031400Z 23005KT 25/17 A30 RMK A01 T02530169  RH  063%=      5-min Rain = 0
KMES 031405Z 20005KT 25/17 A30 RMK A01 T02540169  RH  062%=      5-min Rain = 0
KMES 031410Z 20006KT 26/17 A2999 RMK A01 T02570170  RH  061%=      5-min Rain = 0
KMES 031415Z 20006KT 26/17 A2999 RMK A01 T02580170  RH  061%=      5-min Rain = 0
KMES 031420Z 20006KT 26/17 A30 RMK A01 T02620171  RH  060%=      5-min Rain = 0
KMES 031425Z 22005KT 27/17 A30 RMK A01 T02660169  RH  058%=      5-min Rain = 0
KMES 031430Z 22004KT 27/17 A30 RMK A01 T02660169  RH  058%=      5-min Rain = 0
KMES 031435Z 21004KT 27/17 A30 RMK A01 T02690170  RH  057%=      5-min Rain = 0
KMES 031440Z 20006KT 27/17 A30 RMK A01 T02720170  RH  056%=      5-min Rain = 0
KMES 031445Z 21008KT 28/17 A30 RMK A01 T02750168  RH  055%=      5-min Rain = 0
KMES 031450Z 22008G13KT 28/17 A30 RMK A01 T02760167  RH  054%=      5-min Rain = 0
KMES 031455Z 22008KT 28/17 A30 RMK A01 T02790166  RH  053%=      5-min Rain = 0
KMES 031500Z 22009KT 28/17 A2999 RMK A01 T02790165  RH  052%=      5-min Rain = 0
KMES 031505Z 23007KT 28/17 A30 RMK A01 T02820166  RH  052%=      5-min Rain = 0
KMES 031510Z 22007KT 28/17 A30 RMK A01 T02830166  RH  052%=      5-min Rain = 0
KMES 031515Z 23008KT 29/17 A30 RMK A01 T02870166  RH  050%=      5-min Rain = 0
KMES 031520Z 23008G13KT 29/17 A2999 RMK A01 T02880166  RH  050%=      5-min Rain = 0
KMES 031525Z 22009KT 29/17 A2999 RMK A01 T02880165  RH  050%=      5-min Rain = 0
KMES 031530Z 22006KT 29/17 A2999 RMK A01 T02880165  RH  050%=      5-min Rain = 0
KMES 031535Z 22009KT 29/17 A2999 RMK A01 T02930165  RH  048%=      5-min Rain = 0
KMES 031540Z 21008KT 30/17 A2999 RMK A01 T02970165  RH  047%=      5-min Rain = 0
KMES 031545Z 21010KT 30/17 A2998 RMK A01 T02970165  RH  047%=      5-min Rain = 0
KMES 031550Z 23008KT 30/17 A2999 RMK A01 T02990165  RH  046%=      5-min Rain = 0
KMES 031555Z 21007KT 30/16 A2998 RMK A01 T02980163  RH  047%=      5-min Rain = 0
KMES 031600Z 22007KT 30/17 A2998 RMK A01 T03000165  RH  046%=      5-min Rain = 0
KMES 031605Z 21008KT 30/16 A2998 RMK A01 T03030163  RH  045%=      5-min Rain = 0
KMES 031610Z 21008KT 31/16 A2998 RMK A01 T03060164  RH  045%=      5-min Rain = 0
KMES 031615Z 23008KT 31/16 A2998 RMK A01 T03070163  RH  044%=      5-min Rain = 0
KMES 031620Z 23009KT 31/16 A2998 RMK A01 T03070163  RH  044%=      5-min Rain = 0
KMES 031625Z 22010KT 31/16 A2998 RMK A01 T03100160  RH  042%=      5-min Rain = 0
KMES 031630Z 22008KT 31/16 A2998 RMK A01 T03110161  RH  042%=      5-min Rain = 0
KMES 031635Z 23006KT 31/16 A2998 RMK A01 T03110163  RH  043%=      5-min Rain = 0
KMES 031640Z 22009KT 32/16 A2997 RMK A01 T03160162  RH  042%=      5-min Rain = 0
KMES 031645Z 21007G13KT 32/16 A2997 RMK A01 T03180159  RH  040%=      5-min Rain = 0
KMES 031650Z 23010KT 32/16 A2997 RMK A01 T03200157  RH  039%=      5-min Rain = 0
KMES 031655Z 22008KT 32/15 A2997 RMK A01 T03200154  RH  039%=      5-min Rain = 0
KMES 031700Z 21007G12KT 32/16 A2997 RMK A01 T03230155  RH  038%=      5-min Rain = 0
KMES 031705Z 22007KT 33/16 A2997 RMK A01 T03250156  RH  038%=      5-min Rain = 0
KMES 031710Z 22008G13KT 33/16 A2997 RMK A01 T03290155  RH  037%=      5-min Rain = 0
KMES 031715Z 20006KT 33/15 A2996 RMK A01 T03300154  RH  036%=      5-min Rain = 0
KMES 031720Z 18007G13KT 33/15 A2996 RMK A01 T03340153  RH  035%=      5-min Rain = 0
KMES 031725Z 18009KT 34/15 A2996 RMK A01 T03360152  RH  035%=      5-min Rain = 0
KMES 031730Z 20007G12KT 33/15 A2996 RMK A01 T03330150  RH  035%=      5-min Rain = 0
KMES 031735Z 18004KT 33/15 A2996 RMK A01 T03340151  RH  035%=      5-min Rain = 0
KMES 031740Z 20007G12KT 34/15 A2995 RMK A01 T03390152  RH  034%=      5-min Rain = 0
KMES 031745Z 21008KT 34/15 A2995 RMK A01 T03380147  RH  033%=      5-min Rain = 0
KMES 031750Z 22009G14KT 34/15 A2995 RMK A01 T03420147  RH  032%=      5-min Rain = 0
KMES 031755Z 21008G13KT 35/15 A2995 RMK A01 T03460148  RH  032%=      5-min Rain = 0
KMES 031800Z 21009G14KT 34/15 A2995 RMK A01 T03420147  RH  032%=      5-min Rain = 0
KMES 031805Z 21007G12KT 34/15 A2995 RMK A01 T03390147  RH  033%=      5-min Rain = 0
KMES 031810Z 22003G10KT 34/15 A2994 RMK A01 T03350145  RH  033%=      5-min Rain = 0
KMES 031815Z 20003G9KT 34/15 A2994 RMK A01 T03390148  RH  033%=      5-min Rain = 0
KMES 031820Z 17004G9KT 34/15 A2994 RMK A01 T03440145  RH  032%=      5-min Rain = 0
KMES 031825Z 18008G13KT 35/14 A2993 RMK A01 T03470141  RH  030%=      5-min Rain = 0
KMES 031830Z 16008KT 35/14 A2993 RMK A01 T03490139  RH  029%=      5-min Rain = 0
KMES 031835Z 19008KT 35/14 A2993 RMK A01 T03480135  RH  029%=      5-min Rain = 0
KMES 031840Z 21004G9KT 35/13 A2993 RMK A01 T03490132  RH  028%=      5-min Rain = 0
KMES 031845Z 24006KT 35/13 A2993 RMK A01 T03480134  RH  029%=      5-min Rain = 0
KMES 031850Z 25007KT 35/14 A2993 RMK A01 T03490137  RH  029%=      5-min Rain = 0
KMES 031855Z 27003G8KT 35/14 A2993 RMK A01 T03510139  RH  029%=      5-min Rain = 0
KMES 031900Z 27004KT 35/14 A2992 RMK A01 T03540140  RH  029%=      5-min Rain = 0
KMES 031905Z 24004G9KT 35/13 A2992 RMK A01 T03540134  RH  028%=      5-min Rain = 0
KMES 031910Z 02003KT 35/14 A2992 RMK A01 T03540137  RH  028%=      5-min Rain = 0
KMES 031915Z 06006KT 36/14 A2991 RMK A01 T03580138  RH  028%=      5-min Rain = 0
KMES 031920Z 13006G14KT 35/14 A2991 RMK A01 T03520135  RH  028%=      5-min Rain = 0
KMES 031925Z 13006G11KT 35/14 A2991 RMK A01 T03460135  RH  029%=      5-min Rain = 0
KMES 031930Z 24005KT 35/13 A2991 RMK A01 T03450129  RH  028%=      5-min Rain = 0
KMES 031935Z 23005G10KT 35/13 A2991 RMK A01 T03450131  RH  029%=      5-min Rain = 0
KMES 031940Z 16008KT 35/14 A2991 RMK A01 T03510135  RH  028%=      5-min Rain = 0
KMES 031945Z 14006G11KT 36/13 A299 RMK A01 T03570133  RH  027%=      5-min Rain = 0
KMES 031950Z 14004KT 36/13 A299 RMK A01 T03550131  RH  027%=      5-min Rain = 0
KMES 031955Z 17007G13KT 36/13 A299 RMK A01 T03550133  RH  027%=      5-min Rain = 0
KMES 032000Z 19006G12KT 36/13 A299 RMK A01 T03560132  RH  027%=      5-min Rain = 0
KMES 032005Z 19006KT 36/14 A299 RMK A01 T03580135  RH  027%=      5-min Rain = 0
KMES 032010Z 21008KT 36/13 A2989 RMK A01 T03570131  RH  027%=      5-min Rain = 0
KMES 032015Z 24006KT 35/13 A2989 RMK A01 T03510128  RH  027%=      5-min Rain = 0
KMES 032020Z 25007G16KT 35/13 A2989 RMK A01 T03470129  RH  028%=      5-min Rain = 0
KMES 032025Z 21008KT 35/14 A2989 RMK A01 T03510135  RH  029%=      5-min Rain = 0
KMES 032030Z 21009G14KT 36/14 A2989 RMK A01 T03600139  RH  028%=      5-min Rain = 0
KMES 032035Z 22011KT 36/14 A2989 RMK A01 T03550139  RH  029%=      5-min Rain = 0
KMES 032040Z 20010KT 36/14 A2989 RMK A01 T03550135  RH  028%=      5-min Rain = 0
KMES 032045Z 19008G14KT 36/13 A2989 RMK A01 T03580133  RH  027%=      5-min Rain = 0
KMES 032050Z 20007G13KT 36/14 A2988 RMK A01 T03600135  RH  027%=      5-min Rain = 0
KMES 032055Z 19007G13KT 36/13 A2988 RMK A01 T03590131  RH  026%=      5-min Rain = 0
KMES 032100Z 19006KT 36/13 A2988 RMK A01 T03610130  RH  026%=      5-min Rain = 0
KMES 032105Z 17008G16KT 36/13 A2988 RMK A01 T03610132  RH  026%=      5-min Rain = 0
KMES 032110Z 17011G16KT 36/14 A2988 RMK A01 T03570135  RH  028%=      5-min Rain = 0
KMES 032115Z 18008G14KT 36/13 A2988 RMK A01 T03550133  RH  027%=      5-min Rain = 0
KMES 032120Z 17007KT 35/13 A2988 RMK A01 T03540134  RH  028%=      5-min Rain = 0
KMES 032125Z 18009KT 35/13 A2988 RMK A01 T03480132  RH  028%=      5-min Rain = 0
KMES 032130Z 17009KT 34/13 A2988 RMK A01 T03420134  RH  030%=      5-min Rain = 0
KMES 032135Z 17007KT 34/13 A2987 RMK A01 T03420133  RH  030%=      5-min Rain = 0
KMES 032140Z 18007KT 34/13 A2987 RMK A01 T03420134  RH  030%=      5-min Rain = 0
KMES 032145Z 16007KT 34/13 A2987 RMK A01 T03420133  RH  030%=      5-min Rain = 0
KMES 032150Z 16007KT 34/13 A2987 RMK A01 T03420133  RH  029%=      5-min Rain = 0
KMES 032155Z 16007KT 34/13 A2986 RMK A01 T03420132  RH  029%=      5-min Rain = 0
KMES 032200Z 17007KT 34/13 A2986 RMK A01 T03430133  RH  029%=      5-min Rain = 0
KMES 032205Z 18009G14KT 35/14 A2986 RMK A01 T03470135  RH  029%=      5-min Rain = 0
KMES 032210Z 16008KT 35/13 A2986 RMK A01 T03520132  RH  028%=      5-min Rain = 0
KMES 032215Z 16008KT 35/13 A2985 RMK A01 T03520131  RH  028%=      5-min Rain = 0
KMES 032220Z 15007KT 35/13 A2985 RMK A01 T03530133  RH  028%=      5-min Rain = 0
KMES 032225Z 16009KT 36/13 A2985 RMK A01 T03550132  RH  027%=      5-min Rain = 0
KMES 032230Z 17009G14KT 36/13 A2985 RMK A01 T03570129  RH  027%=      5-min Rain = 0
KMES 032235Z 18009KT 35/13 A2985 RMK A01 T03540128  RH  027%=      5-min Rain = 0
KMES 032240Z 17009KT 35/13 A2985 RMK A01 T03530128  RH  027%=      5-min Rain = 0
KMES 032245Z 16009KT 35/13 A2985 RMK A01 T03530127  RH  027%=      5-min Rain = 0
KMES 032250Z 17009KT 35/13 A2984 RMK A01 T03520128  RH  027%=      5-min Rain = 0
KMES 032255Z 17007KT 35/13 A2984 RMK A01 T03490131  RH  028%=      5-min Rain = 0
KMES 032300Z 17007KT 35/13 A2984 RMK A01 T03480131  RH  028%=      5-min Rain = 0
KMES 032305Z 16007KT 35/13 A2984 RMK A01 T03480133  RH  029%=      5-min Rain = 0
KMES 032310Z 17008KT 35/13 A2984 RMK A01 T03520130  RH  027%=      5-min Rain = 0
KMES 032315Z 17008KT 35/13 A2984 RMK A01 T03510128  RH  027%=      5-min Rain = 0
KMES 032320Z 18007G13KT 35/12 A2984 RMK A01 T03460124  RH  027%=      5-min Rain = 0
KMES 032325Z 17008KT 34/12 A2984 RMK A01 T03430121  RH  027%=      5-min Rain = 0
KMES 032330Z 16009KT 34/12 A2984 RMK A01 T03410119  RH  027%=      5-min Rain = 0
KMES 032335Z 17008KT 34/12 A2984 RMK A01 T03400122  RH  028%=      5-min Rain = 0
KMES 032340Z 16007KT 34/13 A2984 RMK A01 T03400127  RH  029%=      5-min Rain = 0
KMES 032345Z 16008KT 34/13 A2984 RMK A01 T03420129  RH  029%=      5-min Rain = 0
KMES 032350Z 16008G13KT 35/13 A2983 RMK A01 T03470131  RH  028%=      5-min Rain = 0
KMES 032355Z 16008KT 35/13 A2983 RMK A01 T03490133  RH  028%=      5-min Rain = 0
KMES 040000Z 17009KT 35/13 A2983 RMK A01 T03480133  RH  029%=      5-min Rain = 0
KMES 040005Z 16008KT 35/13 A2983 RMK A01 T03470134  RH  029%=      5-min Rain = 0
KMES 040010Z 17008G14KT 35/13 A2983 RMK A01 T03470134  RH  029%=      5-min Rain = 0
KMES 040015Z 18008G13KT 35/13 A2983 RMK A01 T03470133  RH  029%=      5-min Rain = 0
KMES 040020Z 18011G16KT 35/13 A2983 RMK A01 T03460134  RH  029%=      5-min Rain = 0
KMES 040025Z 18010KT 34/13 A2983 RMK A01 T03440134  RH  029%=      5-min Rain = 0
KMES 040030Z 17010KT 34/13 A2983 RMK A01 T03430134  RH  030%=      5-min Rain = 0
KMES 040035Z 18009G14KT 34/14 A2983 RMK A01 T03430137  RH  030%=      5-min Rain = 0
KMES 040040Z 17009G15KT 34/14 A2983 RMK A01 T03420138  RH  031%=      5-min Rain = 0
KMES 040045Z 17008G14KT 34/14 A2983 RMK A01 T03410139  RH  031%=      5-min Rain = 0
KMES 040050Z 19009KT 34/14 A2983 RMK A01 T03400140  RH  031%=      5-min Rain = 0
KMES 040055Z 20010G16KT 34/14 A2983 RMK A01 T03370140  RH  032%=      5-min Rain = 0
KMES 040100Z 20008KT 33/14 A2983 RMK A01 T03340141  RH  033%=      5-min Rain = 0
KMES 040105Z 20010KT 33/14 A2983 RMK A01 T03310138  RH  033%=      5-min Rain = 0
KMES 040110Z 20008G13KT 33/14 A2983 RMK A01 T03290138  RH  033%=      5-min Rain = 0
KMES 040115Z 20010KT 33/14 A2983 RMK A01 T03260137  RH  033%=      5-min Rain = 0
KMES 040120Z 19009KT 32/14 A2983 RMK A01 T03230137  RH  034%=      5-min Rain = 0
KMES 040125Z 19008KT 32/14 A2984 RMK A01 T03200138  RH  034%=      5-min Rain = 0
KMES 040130Z 19007KT 32/14 A2984 RMK A01 T03170139  RH  035%=      5-min Rain = 0
KMES 040135Z 18005KT 31/14 A2984 RMK A01 T03140140  RH  036%=      5-min Rain = 0
KMES 040140Z 18005KT 31/14 A2984 RMK A01 T03110141  RH  037%=      5-min Rain = 0
KMES 040145Z 17005KT 31/14 A2984 RMK A01 T03090142  RH  038%=      5-min Rain = 0
KMES 040150Z 17004KT 31/14 A2984 RMK A01 T03060143  RH  039%=      5-min Rain = 0
KMES 040155Z 17004KT 30/14 A2984 RMK A01 T03030144  RH  040%=      5-min Rain = 0
KMES 040200Z 18004KT 30/14 A2984 RMK A01 T03010144  RH  040%=      5-min Rain = 0
KMES 040205Z 18005KT 30/15 A2984 RMK A01 T03000145  RH  041%=      5-min Rain = 0
KMES 040210Z 18005KT 30/15 A2984 RMK A01 T02980145  RH  041%=      5-min Rain = 0
KMES 040215Z 18004KT 30/15 A2984 RMK A01 T02970146  RH  042%=      5-min Rain = 0
KMES 040220Z 18004KT 30/15 A2984 RMK A01 T02950146  RH  042%=      5-min Rain = 0
KMES 040225Z 19004KT 29/15 A2984 RMK A01 T02930147  RH  043%=      5-min Rain = 0
KMES 040230Z 19004KT 29/15 A2984 RMK A01 T02910148  RH  043%=      5-min Rain = 0
KMES 040235Z 18003KT 29/15 A2984 RMK A01 T02900147  RH  044%=      5-min Rain = 0
KMES 040240Z 19004KT 29/15 A2984 RMK A01 T02890148  RH  044%=      5-min Rain = 0
KMES 040245Z 19003KT 29/15 A2985 RMK A01 T02870148  RH  045%=      5-min Rain = 0
KMES 040250Z 20004KT 29/15 A2985 RMK A01 T02850148  RH  045%=      5-min Rain = 0
KMES 040255Z 20003KT 28/15 A2985 RMK A01 T02840148  RH  046%=      5-min Rain = 0
KMES 040300Z 21004KT 28/15 A2986 RMK A01 T02820148  RH  046%=      5-min Rain = 0
KMES 040305Z 22004KT 28/15 A2986 RMK A01 T02810149  RH  046%=      5-min Rain = 0
KMES 040310Z 22005KT 28/15 A2986 RMK A01 T02790150  RH  047%=      5-min Rain = 0
KMES 040315Z 19005KT 28/15 A2986 RMK A01 T02820149  RH  046%=      5-min Rain = 0
KMES 040320Z 19005KT 28/15 A2986 RMK A01 T02830149  RH  046%=      5-min Rain = 0
KMES 040325Z 19005KT 28/15 A2987 RMK A01 T02820149  RH  046%=      5-min Rain = 0
KMES 040330Z 20004KT 28/15 A2987 RMK A01 T02810150  RH  047%=      5-min Rain = 0
KMES 040335Z 20005KT 28/15 A2987 RMK A01 T02800150  RH  047%=      5-min Rain = 0
KMES 040340Z 20004KT 28/15 A2987 RMK A01 T02790151  RH  048%=      5-min Rain = 0
KMES 040345Z 19004KT 28/15 A2988 RMK A01 T02780151  RH  048%=      5-min Rain = 0
KMES 040350Z 19004KT 28/15 A2988 RMK A01 T02780151  RH  048%=      5-min Rain = 0
KMES 040355Z 20004KT 28/15 A2988 RMK A01 T02770152  RH  048%=      5-min Rain = 0
KMES 040400Z 19003KT 28/15 A2988 RMK A01 T02770152  RH  049%=      5-min Rain = 0
KMES 040405Z 18003KT 28/15 A2988 RMK A01 T02760151  RH  049%=      5-min Rain = 0
KMES 040410Z 18003KT 28/15 A2988 RMK A01 T02760151  RH  048%=      5-min Rain = 0
KMES 040415Z 19004KT 28/15 A2988 RMK A01 T02760151  RH  048%=      5-min Rain = 0
KMES 040420Z 20003KT 28/15 A2988 RMK A01 T02760152  RH  049%=      5-min Rain = 0
KMES 040425Z 19004KT 27/15 A2988 RMK A01 T02730153  RH  050%=      5-min Rain = 0
KMES 040430Z 20004KT 27/15 A2988 RMK A01 T02730151  RH  049%=      5-min Rain = 0
KMES 040435Z 20004KT 27/15 A2988 RMK A01 T02740150  RH  049%=      5-min Rain = 0
KMES 040440Z 18004KT 28/15 A2989 RMK A01 T02750148  RH  048%=      5-min Rain = 0
KMES 040445Z 22003KT 28/15 A2989 RMK A01 T02750149  RH  048%=      5-min Rain = 0
KMES 040450Z 32011G17KT 27/16 A2992 RMK A01 T02700155  RH  052%=      5-min Rain = 0
KMES 040455Z 32009G15KT 26/15 A2992 RMK A01 T02640153  RH  053%=      5-min Rain = 0

Page generated in 0.0096 seconds.